createdAt,value
2022-08-11T00:11:10.714Z,46.0
2022-08-11T00:25:10.743Z,47.0
2022-08-11T00:39:10.748Z,48.0
2022-08-11T00:53:10.752Z,50.0
2022-08-11T01:07:10.723Z,51.0
2022-08-11T01:21:10.798Z,52.0
2022-08-11T01:35:10.829Z,50.0
2022-08-11T01:49:29.278Z,49.0
2022-08-11T02:03:10.869Z,49.0
2022-08-11T02:17:10.829Z,51.0
2022-08-11T02:31:10.838Z,50.0
2022-08-11T02:45:11.002Z,49.0
2022-08-11T02:59:11.009Z,50.0
2022-08-11T03:13:11.140Z,53.0
2022-08-11T03:27:11.046Z,53.0
2022-08-11T03:41:17.999Z,53.0
2022-08-11T03:55:11.178Z,53.0
2022-08-11T04:10:11.241Z,54.0
2022-08-11T04:25:11.253Z,59.0
2022-08-11T04:40:11.255Z,59.0
2022-08-11T04:55:11.247Z,59.0
2022-08-11T05:10:11.229Z,59.0
2022-08-11T05:25:11.270Z,57.0
2022-08-11T05:40:11.336Z,54.0
2022-08-11T05:55:11.673Z,50.0
2022-08-11T06:10:11.667Z,49.0
2022-08-11T06:25:11.657Z,50.0
2022-08-11T06:40:11.681Z,48.0
2022-08-11T06:55:56.405Z,49.0
2022-08-11T07:10:11.680Z,46.0
2022-08-11T07:25:11.657Z,32.0
2022-08-11T07:40:11.668Z,36.0
2022-08-11T07:55:11.780Z,33.0
2022-08-11T08:10:14.109Z,35.0
2022-08-11T08:25:12.173Z,34.0
2022-08-11T08:40:12.204Z,32.0
2022-08-11T08:55:12.216Z,31.0
2022-08-11T09:10:12.233Z,32.0
2022-08-11T09:25:12.244Z,34.0
2022-08-11T09:40:12.297Z,32.0
2022-08-11T09:55:12.367Z,33.0
2022-08-11T10:10:12.399Z,32.0
2022-08-11T10:25:12.391Z,31.0
2022-08-11T10:40:12.380Z,28.0
2022-08-11T10:56:12.392Z,29.0
2022-08-11T11:04:55.324Z,28.0
2022-08-11T11:20:55.339Z,28.0
2022-08-11T11:35:55.340Z,28.0
2022-08-11T11:51:55.316Z,28.0
2022-08-11T12:07:57.059Z,28.0
2022-08-11T12:22:55.382Z,27.0
2022-08-11T12:38:00.544Z,27.0
2022-08-11T12:52:55.401Z,27.0
2022-08-11T13:07:55.535Z,26.0
2022-08-11T13:22:55.529Z,26.0
2022-08-11T13:38:26.977Z,26.0
2022-08-11T13:52:55.959Z,27.0
2022-08-11T14:07:55.974Z,27.0
2022-08-11T14:22:55.947Z,26.0
2022-08-11T14:37:55.984Z,26.0
2022-08-11T14:52:55.963Z,27.0
2022-08-11T15:07:56.005Z,26.0
2022-08-11T15:22:56.006Z,27.0
2022-08-11T15:37:56.048Z,26.0
2022-08-11T15:52:56.062Z,26.0
2022-08-11T16:07:56.319Z,26.0
2022-08-11T16:22:57.260Z,28.0
2022-08-11T16:37:56.441Z,29.0
2022-08-11T16:52:56.436Z,30.0
2022-08-11T17:07:56.471Z,33.0
2022-08-11T17:22:56.506Z,36.0
2022-08-11T17:37:56.513Z,38.0
2022-08-11T17:52:56.629Z,38.0
2022-08-11T18:07:56.667Z,42.0
2022-08-11T18:23:56.645Z,45.0
2022-08-11T18:38:56.593Z,46.0
2022-08-11T18:53:56.602Z,48.0
2022-08-11T19:07:56.663Z,49.0
2022-08-11T19:21:56.715Z,51.0
2022-08-11T19:35:56.650Z,45.0
2022-08-11T19:49:56.640Z,45.0
2022-08-11T20:03:56.624Z,51.0
2022-08-11T20:17:56.663Z,53.0
2022-08-11T20:31:56.692Z,49.0
2022-08-11T20:45:57.332Z,48.0
2022-08-11T20:59:57.198Z,53.0
2022-08-11T21:13:57.541Z,55.0
2022-08-11T21:27:57.567Z,56.0
2022-08-11T21:41:57.588Z,57.0
2022-08-11T21:55:57.533Z,53.0
2022-08-11T22:09:57.542Z,52.0
2022-08-11T22:23:57.569Z,48.0
2022-08-11T22:37:57.572Z,46.0
2022-08-11T22:51:57.566Z,54.0
2022-08-11T23:05:57.572Z,49.0
2022-08-11T23:19:59.956Z,46.0
2022-08-11T23:33:57.577Z,45.0
2022-08-11T23:47:57.603Z,49.0
